Time;durP1;ratioP1;P1;durP2;ratioP2;P2;SDS_P1;SDS_P2;PMS_P1;PMS_P2;Temp;Humidity;BMP_temperature;BMP_pressure;BME280_temperature;BME280_humidity;BME280_pressure;Samples;Min_cycle;Max_cycle;Signal;HPM_P1;HPM_P2
2023/07/02 00:01:28;;;;;;;22.83;8.70;;;;;;;17.64;79.66;98347.63;5151037;27;20133;-79
2023/07/02 00:04:16;;;;;;;20.55;8.23;;;;;;;17.41;80.17;98344.31;5151885;27;20530;-79
2023/07/02 00:07:00;;;;;;;28.33;9.02;;;;;;;17.34;80.13;98333.16;5135022;27;20095;-79
2023/07/02 00:09:44;;;;;;;23.15;8.30;;;;;;;17.02;80.58;98326.03;5149940;27;20070;-80
2023/07/02 00:12:27;;;;;;;;;;;;;;;17.66;79.34;98334.88;5152739;27;20091;-80
2023/07/02 00:15:11;;;;;;;23.33;8.45;;;;;;;16.96;80.75;98322.50;5136821;27;20003;-81
2023/07/02 00:17:57;;;;;;;21.10;8.32;;;;;;;17.34;79.68;98322.53;5152259;27;20045;-81
2023/07/02 00:20:41;;;;;;;24.77;8.20;;;;;;;17.35;80.42;98313.53;5136208;27;20045;-81
2023/07/02 00:23:25;;;;;;;33.60;9.18;;;;;;;17.42;80.60;98330.81;5151744;27;20096;-81
2023/07/02 00:26:09;;;;;;;19.67;8.38;;;;;;;17.71;80.02;98321.66;5137187;27;20049;-81
2023/07/02 00:28:55;;;;;;;23.75;9.52;;;;;;;17.47;80.81;98337.19;5136629;27;20067;-81
2023/07/02 00:31:40;;;;;;;28.98;8.13;;;;;;;17.58;80.85;98324.78;5136581;27;20038;-81
2023/07/02 00:34:24;;;;;;;24.42;7.78;;;;;;;17.55;81.01;98323.44;5152288;27;20056;-80
2023/07/02 00:37:08;;;;;;;26.65;8.88;;;;;;;17.24;81.81;98328.56;5151816;27;20556;-80
2023/07/02 00:39:52;;;;;;;18.45;8.00;;;;;;;17.40;81.20;98316.19;5152046;27;20168;-80
2023/07/02 00:42:37;;;;;;;20.50;7.30;;;;;;;17.70;80.30;98314.75;5135671;27;20042;-81
2023/07/02 00:45:26;;;;;;;21.08;7.90;;;;;;;17.30;80.69;98316.16;5152181;27;20465;-81
2023/07/02 00:48:10;;;;;;;19.63;6.88;;;;;;;17.23;80.34;98322.47;5150038;27;20552;-80
2023/07/02 00:50:54;;;;;;;16.92;6.88;;;;;;;17.26;80.22;98321.94;5150595;27;20507;-81
2023/07/02 00:53:38;;;;;;;18.80;6.53;;;;;;;17.17;80.15;98323.50;5151693;27;20034;-82
2023/07/02 00:56:23;;;;;;;18.20;6.40;;;;;;;17.31;79.88;98318.53;5135594;27;20049;-81
2023/07/02 00:59:07;;;;;;;18.95;6.70;;;;;;;17.10;80.65;98330.88;5151229;27;20038;-81
2023/07/02 01:01:51;;;;;;;21.63;7.00;;;;;;;17.13;80.06;98317.09;5136699;27;20395;-80
2023/07/02 01:04:37;;;;;;;17.80;7.15;;;;;;;17.39;79.78;98317.25;5134636;27;20111;-81
2023/07/02 01:07:21;;;;;;;23.90;6.90;;;;;;;17.22;80.65;98320.09;5150359;27;20491;-79
2023/07/02 01:10:06;;;;;;;19.00;6.68;;;;;;;17.01;81.13;98327.09;5147823;27;20068;-80
2023/07/02 01:12:51;;;;;;;28.90;7.40;;;;;;;16.97;81.45;98327.56;5150293;27;20123;-80
2023/07/02 01:15:36;;;;;;;19.67;6.53;;;;;;;17.09;80.44;98331.91;5150710;27;20038;-80
2023/07/02 01:18:21;;;;;;;25.67;6.78;;;;;;;17.05;80.90;98328.16;5135437;27;20052;-80
2023/07/02 01:21:08;;;;;;;22.05;6.85;;;;;;;16.65;81.22;98338.97;5150266;27;20514;-80
2023/07/02 01:23:53;;;;;;;22.40;8.43;;;;;;;16.72;81.27;98327.38;5151466;27;20065;-79
2023/07/02 01:26:37;;;;;;;14.93;6.38;;;;;;;17.08;80.51;98322.34;5135893;27;20095;-79
2023/07/02 01:29:21;;;;;;;22.48;6.45;;;;;;;17.08;80.16;98331.13;5150295;27;20099;-79
2023/07/02 01:32:06;;;;;;;19.38;6.50;;;;;;;17.11;80.13;98327.16;5135349;27;20564;-80
2023/07/02 01:34:53;;;;;;;17.85;6.45;;;;;;;17.35;79.74;98334.75;5136014;27;20376;-79
2023/07/02 01:37:37;;;;;;;22.33;6.53;;;;;;;17.34;79.96;98338.44;5151454;27;20134;-80
2023/07/02 01:40:21;;;;;;;20.02;6.93;;;;;;;17.61;79.76;98332.22;5149936;27;20069;-81
2023/07/02 01:43:04;;;;;;;;;;;;;;;17.77;79.95;98335.72;5151584;27;20067;-79
2023/07/02 01:45:48;;;;;;;20.13;6.68;;;;;;;17.74;79.93;98339.72;5150974;27;20399;-79
2023/07/02 01:48:32;;;;;;;21.50;7.72;;;;;;;17.44;81.08;98343.00;5148888;27;21006;-79
2023/07/02 01:51:16;;;;;;;19.65;7.20;;;;;;;17.30;81.66;98337.38;5134665;27;20042;-80
2023/07/02 01:54:01;;;;;;;23.67;7.82;;;;;;;17.70;80.91;98343.94;5132060;27;20536;-80
2023/07/02 01:56:45;;;;;;;23.25;7.95;;;;;;;17.63;80.78;98344.19;5135323;27;20523;-80
2023/07/02 01:59:30;;;;;;;24.88;7.28;;;;;;;17.78;80.50;98338.13;5151115;27;20092;-79
2023/07/02 02:02:14;;;;;;;17.10;7.00;;;;;;;17.74;80.55;98337.06;5149763;27;20091;-78
2023/07/02 02:04:58;;;;;;;21.17;8.18;;;;;;;17.50;81.14;98339.31;5133247;27;20099;-79
2023/07/02 02:07:41;;;;;;;24.23;9.10;;;;;;;17.63;80.55;98336.22;5134360;27;20071;-79
2023/07/02 02:10:25;;;;;;;20.77;7.28;;;;;;;17.39;80.87;98349.91;5134867;27;20045;-79
2023/07/02 02:13:09;;;;;;;25.60;7.75;;;;;;;17.44;80.40;98335.84;5133121;27;20137;-79
2023/07/02 02:15:54;;;;;;;23.25;7.55;;;;;;;17.50;79.98;98342.78;5134717;27;20103;-79
2023/07/02 02:18:38;;;;;;;25.95;7.05;;;;;;;17.38;80.19;98347.50;5150725;27;20062;-78
2023/07/02 02:21:22;;;;;;;18.42;6.93;;;;;;;17.56;79.99;98344.41;5150168;27;20053;-79
2023/07/02 02:24:10;;;;;;;17.80;6.43;;;;;;;17.61;79.50;98342.84;5136160;27;20127;-79
2023/07/02 02:26:54;;;;;;;23.77;7.20;;;;;;;17.37;79.88;98343.25;5154390;27;20091;-80
2023/07/02 02:29:38;;;;;;;24.15;7.47;;;;;;;17.65;79.21;98346.56;5154461;27;20038;-79
2023/07/02 02:32:22;;;;;;;25.67;7.03;;;;;;;17.64;79.25;98342.31;5153562;27;20041;-81
2023/07/02 02:35:07;;;;;;;19.05;6.93;;;;;;;17.65;79.13;98338.59;5152571;27;20076;-79
2023/07/02 02:37:51;;;;;;;16.13;6.90;;;;;;;17.45;79.28;98350.69;5153515;27;20042;-79
2023/07/02 02:40:35;;;;;;;13.80;6.30;;;;;;;17.55;79.30;98345.47;5154301;27;20543;-79
2023/07/02 02:43:20;;;;;;;19.60;6.68;;;;;;;17.66;79.00;98341.00;5139053;27;20099;-78
2023/07/02 02:46:04;;;;;;;19.08;7.63;;;;;;;17.51;79.22;98354.19;5137442;27;20099;-79
2023/07/02 02:48:49;;;;;;;21.88;6.78;;;;;;;17.48;79.02;98357.34;5154328;27;20044;-79
2023/07/02 02:51:33;;;;;;;21.42;8.45;;;;;;;17.45;78.90;98356.00;5152801;27;20748;-80
2023/07/02 02:54:17;;;;;;;22.55;7.15;;;;;;;17.55;78.69;98345.47;5137329;27;20122;-80
2023/07/02 02:57:02;;;;;;;18.42;7.10;;;;;;;17.85;78.13;98359.91;5137659;27;20087;-80
2023/07/02 02:59:46;;;;;;;19.58;7.30;;;;;;;17.50;78.58;98344.63;5137528;27;20057;-79
2023/07/02 03:02:30;;;;;;;16.05;6.32;;;;;;;17.83;77.81;98354.06;5137690;27;20095;-80
2023/07/02 03:05:16;;;;;;;17.15;6.93;;;;;;;17.40;79.16;98363.94;5154449;27;20045;-80
2023/07/02 03:08:00;;;;;;;19.73;7.13;;;;;;;17.65;78.80;98365.13;5138013;27;20050;-79
2023/07/02 03:10:44;;;;;;;20.77;7.72;;;;;;;17.81;78.36;98353.53;5138108;27;20041;-79
2023/07/02 03:13:28;;;;;;;18.85;6.63;;;;;;;17.78;78.11;98359.38;5152811;27;20041;-80
2023/07/02 03:16:12;;;;;;;19.17;7.15;;;;;;;17.70;78.22;98350.03;5138502;27;20069;-80
2023/07/02 03:18:56;;;;;;;21.08;7.28;;;;;;;17.66;78.10;98354.28;5153663;27;20040;-81
2023/07/02 03:21:43;;;;;;;20.85;7.50;;;;;;;17.62;77.74;98353.19;5137857;27;20403;-81
2023/07/02 03:24:28;;;;;;;16.98;7.20;;;;;;;17.43;78.31;98350.16;5153627;27;20119;-80
2023/07/02 03:27:11;;;;;;;21.77;7.38;;;;;;;17.54;78.04;98349.19;5153540;27;20045;-80
2023/07/02 03:29:56;;;;;;;16.42;6.82;;;;;;;17.96;77.21;98344.03;5138065;27;20041;-80
2023/07/02 03:32:39;;;;;;;20.77;6.65;;;;;;;17.91;77.25;98359.97;5153854;27;20053;-80
2023/07/02 03:35:23;;;;;;;20.30;7.50;;;;;;;17.83;77.76;98350.63;5150186;27;20034;-79
2023/07/02 03:38:07;;;;;;;16.63;7.35;;;;;;;18.03;78.34;98349.16;5137726;27;20049;-79
2023/07/02 03:40:51;;;;;;;16.92;7.15;;;;;;;18.05;78.59;98363.75;5151156;27;20533;-79
2023/07/02 03:43:35;;;;;;;24.48;7.72;;;;;;;17.81;78.68;98358.06;5152557;27;20052;-79
2023/07/02 03:46:19;;;;;;;16.20;6.88;;;;;;;17.96;79.07;98359.97;5153741;27;20221;-79
2023/07/02 03:49:04;;;;;;;21.40;7.47;;;;;;;17.71;79.63;98393.31;5152800;27;20098;-80
2023/07/02 03:51:48;;;;;;;20.77;6.93;;;;;;;17.51;80.36;98360.31;5152506;27;20122;-79
2023/07/02 03:54:31;;;;;;;24.08;7.30;;;;;;;17.77;79.58;98368.38;5152980;27;20053;-79
2023/07/02 03:57:15;;;;;;;21.58;7.28;;;;;;;17.64;79.99;98352.94;5151751;27;20045;-79
2023/07/02 03:59:59;;;;;;;25.20;7.05;;;;;;;17.65;79.73;98359.81;5149860;27;20057;-79
2023/07/02 04:02:43;;;;;;;27.52;8.77;;;;;;;17.55;79.78;98356.06;5136874;27;20127;-79
2023/07/02 04:05:27;;;;;;;19.90;7.53;;;;;;;17.61;79.78;98366.72;5151853;27;20042;-79
2023/07/02 04:08:11;;;;;;;17.95;7.65;;;;;;;17.39;80.26;98359.69;5136729;27;20095;-78
2023/07/02 04:10:55;;;;;;;19.35;6.88;;;;;;;17.84;79.44;98357.53;5150438;27;20095;-78
2023/07/02 04:13:42;;;;;;;15.15;7.00;;;;;;;17.54;79.69;98354.47;5151200;27;20034;-79
2023/07/02 04:16:26;;;;;;;17.92;7.63;;;;;;;17.80;79.44;98351.94;5152637;27;20037;-80
2023/07/02 04:19:10;;;;;;;19.23;7.43;;;;;;;17.62;79.42;98355.03;5152434;27;20046;-79
2023/07/02 04:21:54;;;;;;;;;;;;;;;17.89;78.85;98346.16;5152547;27;20114;-79
2023/07/02 04:24:38;;;;;;;20.30;6.43;;;;;;;17.84;78.59;98352.22;5136940;27;19922;-79
2023/07/02 04:27:22;;;;;;;19.95;6.63;;;;;;;17.40;79.54;98353.34;5151821;27;20115;-80
2023/07/02 04:30:08;;;;;;;18.75;7.82;;;;;;;17.79;79.05;98362.84;5134987;27;20042;-80
2023/07/02 04:32:52;;;;;;;21.90;6.47;;;;;;;17.83;78.27;98366.56;5135497;27;20033;-80
2023/07/02 04:35:36;;;;;;;22.75;6.80;;;;;;;17.89;78.06;98362.09;5134422;27;20403;-81
2023/07/02 04:38:20;;;;;;;22.38;7.22;;;;;;;18.49;76.69;98367.06;5135988;27;20094;-81
2023/07/02 04:41:05;;;;;;;17.25;6.43;;;;;;;18.42;76.66;98360.13;5136661;27;20544;-81
2023/07/02 04:43:49;;;;;;;14.93;7.07;;;;;;;18.29;76.68;98355.34;5149306;27;20084;-80
2023/07/02 04:46:32;;;;;;;17.80;6.40;;;;;;;18.62;76.00;98355.13;5151359;27;20033;-81
2023/07/02 04:49:16;;;;;;;16.55;6.78;;;;;;;18.39;76.57;98365.97;5152314;27;20056;-79
2023/07/02 04:52:00;;;;;;;19.15;7.43;;;;;;;18.46;75.90;98371.03;5136976;27;20042;-80
2023/07/02 04:54:44;;;;;;;21.83;6.90;;;;;;;18.05;76.13;98363.75;5152133;27;20038;-81
2023/07/02 04:57:28;;;;;;;17.08;7.53;;;;;;;18.12;76.69;98366.16;5149682;27;20091;-80
2023/07/02 05:00:13;;;;;;;18.08;6.63;;;;;;;18.46;75.55;98362.25;5135279;27;20151;-81
2023/07/02 05:02:57;;;;;;;16.75;6.50;;;;;;;17.98;76.33;98371.13;5151119;27;20095;-81
2023/07/02 05:05:41;;;;;;;16.27;6.18;;;;;;;17.62;77.37;98360.34;5136254;27;20045;-81
2023/07/02 05:08:25;;;;;;;17.88;6.88;;;;;;;17.51;77.35;98370.91;5135538;27;20475;-81
2023/07/02 05:11:10;;;;;;;16.65;6.45;;;;;;;17.50;77.55;98371.16;5150623;27;20090;-80
2023/07/02 05:13:54;;;;;;;17.98;5.93;;;;;;;18.08;76.69;98370.41;5151158;27;20428;-82
2023/07/02 05:16:38;;;;;;;20.65;6.22;;;;;;;18.61;75.62;98370.25;5152100;27;20048;-80
2023/07/02 05:19:22;;;;;;;19.02;6.22;;;;;;;18.63;75.11;98365.47;5149442;27;20091;-79
2023/07/02 05:22:06;;;;;;;19.25;5.90;;;;;;;18.77;74.90;98362.31;5152247;27;20056;-79
2023/07/02 05:24:50;;;;;;;16.85;5.97;;;;;;;18.40;75.71;98364.91;5151743;27;20045;-80
2023/07/02 05:27:35;;;;;;;16.20;5.50;;;;;;;18.65;75.10;98376.63;5136205;27;20077;-81
2023/07/02 05:30:18;;;;;;;20.25;6.18;;;;;;;18.40;75.50;98370.22;5151960;27;20049;-81
2023/07/02 05:33:02;;;;;;;14.18;6.72;;;;;;;18.63;75.56;98362.81;5151859;27;20169;-82
2023/07/02 05:35:46;;;;;;;13.25;5.88;;;;;;;18.30;76.20;98375.53;5151780;27;20087;-82
2023/07/02 05:38:30;;;;;;;;;;;;;;;18.50;75.99;98379.28;5152227;27;20166;-82
2023/07/02 05:41:21;;;;;;;16.45;6.03;;;;;;;18.09;76.88;98372.00;5136297;27;20280;-81
2023/07/02 05:44:05;;;;;;;17.55;5.80;;;;;;;17.96;76.79;98387.31;5151501;27;20038;-80
2023/07/02 05:46:48;;;;;;;17.42;6.30;;;;;;;17.56;77.81;98381.56;5150853;27;20033;-80
2023/07/02 05:49:32;;;;;;;19.73;6.30;;;;;;;17.42;78.37;98396.31;5135017;27;20084;-81
2023/07/02 05:52:16;;;;;;;13.88;6.22;;;;;;;17.55;78.89;98398.53;5149867;27;20099;-80
2023/07/02 05:55:00;;;;;;;22.88;7.00;;;;;;;18.01;79.56;98383.88;5149833;27;20499;-81
2023/07/02 05:57:45;;;;;;;20.55;9.68;;;;;;;18.33;80.20;98385.63;5151190;27;20042;-81
2023/07/02 06:00:29;;;;;;;21.50;7.47;;;;;;;18.20;79.16;98397.53;5153164;27;20126;-80
2023/07/02 06:03:18;;;;;;;19.08;9.48;;;;;;;18.32;79.97;98389.34;5139666;27;20061;-80
2023/07/02 06:06:03;;;;;;;16.27;9.55;;;;;;;18.39;80.52;98389.88;5137149;27;20439;-80
2023/07/02 06:08:47;;;;;;;19.90;9.60;;;;;;;18.36;81.55;98386.94;5154435;27;20082;-80
2023/07/02 06:11:31;;;;;;;16.70;9.23;;;;;;;18.60;81.53;98389.94;5154610;27;20056;-80
2023/07/02 06:14:14;;;;;;;21.00;10.18;;;;;;;18.23;81.74;98383.75;5154603;27;20133;-80
2023/07/02 06:16:59;;;;;;;25.02;10.70;;;;;;;18.47;81.73;98393.09;5152598;27;20088;-80
2023/07/02 06:19:44;;;;;;;22.45;11.55;;;;;;;18.42;81.73;98389.34;5154816;27;20050;-79
2023/07/02 06:22:28;;;;;;;21.83;12.15;;;;;;;18.51;81.62;98386.19;5139185;27;20102;-81
2023/07/02 06:25:13;;;;;;;23.17;12.02;;;;;;;18.44;81.08;98386.44;5137760;27;20471;-80
2023/07/02 06:27:58;;;;;;;20.65;11.50;;;;;;;18.59;80.79;98391.00;5153862;27;20065;-83
2023/07/02 06:30:42;;;;;;;20.60;10.93;;;;;;;18.61;80.93;98396.84;5155080;27;20050;-80
2023/07/02 06:33:26;;;;;;;21.85;11.48;;;;;;;18.83;80.08;98393.13;5151633;27;22438;-81
2023/07/02 06:36:10;;;;;;;19.13;11.77;;;;;;;18.77;80.25;98391.53;5137244;27;20062;-80
2023/07/02 06:38:54;;;;;;;26.30;12.80;;;;;;;18.07;81.64;98398.03;5134181;27;20038;-77
2023/07/02 06:41:38;;;;;;;19.60;12.68;;;;;;;18.39;82.73;98397.84;5138994;27;20103;-80
2023/07/02 06:44:22;;;;;;;24.13;12.65;;;;;;;18.28;82.61;98393.59;5139497;27;20573;-80
2023/07/02 06:47:06;;;;;;;21.15;12.25;;;;;;;18.26;82.68;98395.69;5154248;27;20067;-82
2023/07/02 06:49:52;;;;;;;23.85;12.63;;;;;;;18.22;82.97;98397.28;5137134;27;20073;-81
2023/07/02 06:52:36;;;;;;;27.08;11.40;;;;;;;18.03;84.64;98397.72;5154122;27;20445;-82
2023/07/02 06:55:20;;;;;;;19.23;10.23;;;;;;;18.15;84.73;98405.47;5138487;27;20095;-81
2023/07/02 06:58:06;;;;;;;21.55;9.63;;;;;;;18.05;84.12;98400.91;5153315;27;20041;-81
2023/07/02 07:00:50;;;;;;;27.00;9.80;;;;;;;18.57;83.39;98401.09;5153743;27;20049;-81
2023/07/02 07:03:35;;;;;;;22.13;9.20;;;;;;;18.61;82.86;98404.81;5151987;27;20061;-80
2023/07/02 07:06:20;;;;;;;20.80;8.38;;;;;;;18.72;81.52;98404.84;5137620;27;20114;-80
2023/07/02 07:09:04;;;;;;;17.83;7.72;;;;;;;18.79;81.45;98405.38;5153647;27;20083;-80
2023/07/02 07:11:48;;;;;;;19.23;7.57;;;;;;;18.76;81.20;98397.94;5153246;27;20094;-82
2023/07/02 07:14:32;;;;;;;16.42;9.00;;;;;;;18.33;81.05;98406.06;5153296;27;20060;-79
2023/07/02 07:17:16;;;;;;;15.95;9.20;;;;;;;18.88;80.07;98398.47;5150252;27;20029;-81
2023/07/02 07:20:02;;;;;;;22.92;10.60;;;;;;;18.60;79.95;98400.56;5152977;27;20452;-83
2023/07/02 07:22:46;;;;;;;24.70;12.55;;;;;;;18.95;79.78;98396.34;5153612;27;20094;-79
2023/07/02 07:25:30;;;;;;;21.92;12.25;;;;;;;19.10;79.82;98405.44;5139007;27;20037;-81
2023/07/02 07:28:16;;;;;;;24.20;9.90;;;;;;;18.52;80.11;98414.38;5150758;27;20159;-80
2023/07/02 07:31:01;;;;;;;24.73;10.23;;;;;;;18.73;82.49;98415.19;5151204;27;20054;-82
2023/07/02 07:33:45;;;;;;;27.15;11.05;;;;;;;18.61;84.51;98417.31;5153130;27;20103;-81
2023/07/02 07:36:30;;;;;;;23.48;10.55;;;;;;;18.28;84.33;98428.13;5141844;27;20038;-81
2023/07/02 07:39:14;;;;;;;21.25;12.30;;;;;;;18.81;84.53;98427.16;5152098;27;20551;-82
2023/07/02 07:41:57;;;;;;;26.35;11.15;;;;;;;18.51;84.94;98431.38;5137380;27;20042;-82
2023/07/02 07:44:41;;;;;;;20.13;10.30;;;;;;;18.71;84.02;98422.63;5151728;27;20080;-80
2023/07/02 07:47:27;;;;;;;20.50;8.95;;;;;;;19.01;83.34;98422.97;5151942;27;20533;-82
2023/07/02 07:50:11;;;;;;;25.10;9.75;;;;;;;18.62;83.44;98422.34;5151673;27;20050;-79
2023/07/02 07:52:56;;;;;;;18.85;8.02;;;;;;;18.79;82.31;98429.31;5151693;27;20045;-80
2023/07/02 07:55:40;;;;;;;20.60;8.07;;;;;;;18.74;83.50;98431.97;5147693;27;20158;-80
2023/07/02 07:58:24;;;;;;;21.63;8.50;;;;;;;18.35;84.72;98441.94;5134032;27;20104;-79
2023/07/02 08:01:08;;;;;;;21.40;7.88;;;;;;;18.12;85.30;98436.03;5125702;27;20096;-78
2023/07/02 08:03:52;;;;;;;23.20;8.27;;;;;;;18.24;86.57;98430.50;5127881;27;20097;-79
2023/07/02 08:06:36;;;;;;;24.27;8.35;;;;;;;17.70;87.38;98426.22;5131550;27;20084;-78
2023/07/02 08:09:21;;;;;;;25.58;8.38;;;;;;;17.69;88.66;98430.72;5129235;27;20117;-78
2023/07/02 08:12:05;;;;;;;22.00;7.28;;;;;;;18.55;87.34;98421.81;5125907;27;20092;-79
2023/07/02 08:14:49;;;;;;;26.80;8.02;;;;;;;18.61;84.93;98428.72;5129050;27;20062;-79
2023/07/02 08:17:34;;;;;;;21.92;8.98;;;;;;;18.74;84.09;98416.78;5128858;27;20050;-79
2023/07/02 08:20:18;;;;;;;29.33;8.98;;;;;;;18.88;82.27;98422.41;5128447;27;20046;-81
2023/07/02 08:23:02;;;;;;;22.30;7.90;;;;;;;19.84;80.40;98429.78;5129363;27;20083;-81
2023/07/02 08:25:46;;;;;;;15.93;6.72;;;;;;;20.01;79.53;98415.38;5129626;27;20111;-81
2023/07/02 08:28:30;;;;;;;22.35;7.38;;;;;;;19.73;79.14;98424.75;5126752;27;20070;-80
2023/07/02 08:31:14;;;;;;;17.67;6.25;;;;;;;19.73;79.10;98438.06;5129553;27;20134;-81
2023/07/02 08:33:58;;;;;;;17.20;6.20;;;;;;;19.26;78.97;98438.94;5130881;27;20164;-82
2023/07/02 08:36:43;;;;;;;19.52;6.88;;;;;;;18.67;82.17;98443.66;5128589;27;20088;-86
2023/07/02 08:39:27;;;;;;;22.42;6.18;;;;;;;18.87;82.73;98436.78;5130572;27;20081;-81
2023/07/02 08:42:11;;;;;;;18.17;6.45;;;;;;;18.24;82.81;98442.97;5123951;27;20088;-81
2023/07/02 08:44:57;;;;;;;18.48;5.93;;;;;;;18.71;81.83;98427.94;5126979;27;20065;-81
2023/07/02 08:47:41;;;;;;;23.67;6.18;;;;;;;18.86;79.94;98432.50;5128974;27;20399;-80
2023/07/02 08:50:25;;;;;;;17.73;4.72;;;;;;;18.80;78.92;98437.03;5130169;27;20468;-80
2023/07/02 08:53:09;;;;;;;19.80;5.13;;;;;;;19.05;79.03;98442.66;5130318;27;20094;-80
2023/07/02 08:55:53;;;;;;;20.65;5.20;;;;;;;19.25;78.30;98442.66;5129589;27;20029;-80
2023/07/02 08:58:37;;;;;;;18.95;4.68;;;;;;;19.25;78.69;98442.66;5127879;27;20104;-80
2023/07/02 09:01:20;;;;;;;;;;;;;;;19.71;78.08;98427.72;5147292;27;20059;-80
2023/07/02 09:04:04;;;;;;;12.75;5.68;;;;;;;19.55;77.60;98435.72;5135933;27;19938;-80
2023/07/02 09:06:49;;;;;;;16.80;5.07;;;;;;;19.92;76.08;98439.13;5136520;27;20122;-80
2023/07/02 09:09:45;;;;;;;14.65;4.57;;;;;;;20.04;75.31;98441.47;5150220;27;20148;-80
2023/07/02 09:12:32;;;;;;;16.45;4.90;;;;;;;19.83;75.11;98428.19;5150038;27;20804;-80
2023/07/02 09:15:16;;;;;;;22.48;5.53;;;;;;;19.71;74.94;98427.72;5149365;27;20099;-79
2023/07/02 09:18:00;;;;;;;19.08;5.40;;;;;;;20.53;73.83;98426.59;5149238;27;20415;-80
2023/07/02 09:20:44;;;;;;;16.58;4.95;;;;;;;20.96;72.88;98423.44;5150451;27;20045;-80
2023/07/02 09:23:37;;;;;;;18.58;5.20;;;;;;;20.45;72.45;98413.88;5146877;27;20061;-81
2023/07/02 09:26:23;;;;;;;17.70;5.10;;;;;;;20.72;72.05;98428.63;5151418;27;20038;-82
2023/07/02 09:29:07;;;;;;;17.95;4.65;;;;;;;21.16;71.33;98426.22;5150710;27;20045;-81
2023/07/02 09:31:51;;;;;;;17.08;5.32;;;;;;;20.77;71.19;98425.94;5149994;27;20441;-82
2023/07/02 09:34:37;;;;;;;15.70;4.72;;;;;;;20.10;70.03;98440.41;5149840;27;20115;-81
2023/07/02 09:37:21;;;;;;;18.50;4.05;;;;;;;20.40;70.15;98425.34;5134281;27;20400;-82
2023/07/02 09:40:08;;;;;;;13.35;4.22;;;;;;;20.00;70.09;98416.47;5150405;27;20059;-80
2023/07/02 09:42:54;;;;;;;11.10;4.25;;;;;;;20.03;70.17;98407.91;5151722;27;20069;-82
2023/07/02 09:45:41;;;;;;;22.73;4.43;;;;;;;19.97;68.91;98398.38;5133168;27;20041;-82
2023/07/02 09:48:31;;;;;;;12.02;4.07;;;;;;;20.58;69.06;98417.00;5151412;27;20108;-83
2023/07/02 09:51:15;;;;;;;13.15;4.18;;;;;;;20.80;67.30;98408.59;5151117;27;20400;-82
2023/07/02 09:53:59;;;;;;;12.32;3.55;;;;;;;20.26;66.64;98411.03;5151046;27;20045;-82
2023/07/02 09:56:46;;;;;;;8.98;3.20;;;;;;;19.89;67.32;98430.88;5134201;27;20400;-82
2023/07/02 09:59:30;;;;;;;11.52;3.72;;;;;;;19.54;67.75;98425.31;5134402;27;20111;-81
2023/07/02 10:02:14;;;;;;;12.98;3.85;;;;;;;23.49;76.51;98420.66;5133700;27;20045;-82
2023/07/02 10:04:58;;;;;;;8.65;3.45;;;;;;;22.53;71.82;98424.25;5150684;27;20125;-81
2023/07/02 10:07:42;;;;;;;11.85;3.50;;;;;;;22.26;70.19;98438.22;5135162;27;20515;-81
2023/07/02 10:10:30;;;;;;;13.68;3.90;;;;;;;22.58;69.82;98436.75;5149658;27;20544;-81
2023/07/02 10:13:15;;;;;;;8.52;2.80;;;;;;;22.13;66.09;98445.06;5135879;27;20042;-81
2023/07/02 10:16:05;;;;;;;9.13;3.35;;;;;;;23.63;63.00;98444.78;5149805;27;20545;-81
2023/07/02 10:18:49;;;;;;;9.93;3.20;;;;;;;23.01;62.33;98427.81;5134584;27;20053;-82
2023/07/02 10:21:33;;;;;;;6.28;2.80;;;;;;;23.29;59.75;98440.53;5151253;27;20067;-82
2023/07/02 10:24:18;;;;;;;6.32;2.40;;;;;;;23.36;57.53;98433.72;5149568;27;20081;-82
2023/07/02 10:27:03;;;;;;;8.90;2.80;;;;;;;24.10;57.07;98440.13;5149602;27;20095;-82
2023/07/02 10:29:50;;;;;;;5.93;2.65;;;;;;;24.00;56.59;98429.59;5149984;27;20083;-81
2023/07/02 10:32:37;;;;;;;7.88;2.95;;;;;;;24.47;57.01;98434.84;5134774;27;20569;-82
2023/07/02 10:35:22;;;;;;;10.80;3.10;;;;;;;24.77;55.58;98437.94;5133189;27;20060;-82
2023/07/02 10:38:08;;;;;;;8.77;2.67;;;;;;;24.31;54.68;98430.91;5150429;27;20034;-82
2023/07/02 10:41:02;;;;;;;9.45;3.50;;;;;;;24.87;54.54;98423.50;5151055;27;20046;-83
2023/07/02 10:43:46;;;;;;;;;;;;;;;25.65;53.42;98429.66;5150311;27;20054;-82
2023/07/02 10:46:30;;;;;;;7.82;3.20;;;;;;;24.46;52.33;98429.75;5152710;27;20371;-82
2023/07/02 10:49:19;;;;;;;9.82;3.00;;;;;;;25.03;52.58;98431.19;5136016;27;20560;-83
2023/07/02 10:52:04;;;;;;;7.90;2.70;;;;;;;24.46;51.18;98421.72;5153829;27;20099;-82
2023/07/02 10:54:48;;;;;;;12.20;3.58;;;;;;;24.22;52.39;98409.34;5153102;27;20069;-82
2023/07/02 10:57:32;;;;;;;5.60;2.70;;;;;;;24.20;52.14;98424.94;5154005;27;20549;-82
2023/07/02 11:00:17;;;;;;;10.23;3.10;;;;;;;23.59;52.43;98414.31;5152857;27;20053;-82
2023/07/02 11:03:03;;;;;;;11.40;3.40;;;;;;;23.63;53.47;98420.66;5153922;27;20050;-82
2023/07/02 11:05:51;;;;;;;7.28;3.13;;;;;;;23.98;53.25;98429.13;5154588;27;20397;-82
2023/07/02 11:08:36;;;;;;;7.32;3.13;;;;;;;23.32;53.75;98426.56;5153294;27;20045;-82
2023/07/02 11:11:22;;;;;;;9.52;3.00;;;;;;;23.24;54.82;98436.03;5152762;27;20041;-82
2023/07/02 11:14:06;;;;;;;8.32;3.45;;;;;;;22.41;55.90;98431.88;5138418;27;20049;-81
2023/07/02 11:16:55;;;;;;;8.05;3.40;;;;;;;23.14;55.21;98426.28;5150885;27;20125;-82
2023/07/02 11:19:39;;;;;;;9.48;3.35;;;;;;;23.65;54.18;98450.63;5137425;27;20499;-82
2023/07/02 11:22:33;;;;;;;10.40;2.95;;;;;;;23.74;53.24;98446.16;5137506;27;20053;-81
2023/07/02 11:25:21;;;;;;;6.70;2.85;;;;;;;23.61;53.11;98460.34;5152313;27;20538;-82
2023/07/02 11:28:06;;;;;;;7.88;2.70;;;;;;;23.37;53.45;98455.91;5152309;27;20083;-82
2023/07/02 11:30:50;;;;;;;6.65;2.85;;;;;;;24.51;52.32;98449.22;5136763;27;20079;-82
2023/07/02 11:33:38;;;;;;;6.43;2.67;;;;;;;25.21;51.11;98440.94;5153486;27;20087;-82
2023/07/02 11:36:26;;;;;;;10.07;3.20;;;;;;;25.69;50.37;98445.97;5138433;27;20045;-82
2023/07/02 11:39:12;;;;;;;8.40;2.88;;;;;;;24.57;50.10;98435.69;5136459;27;20078;-82
2023/07/02 11:41:56;;;;;;;6.40;2.65;;;;;;;24.55;50.52;98432.53;5136771;27;20437;-82
2023/07/02 11:44:40;;;;;;;9.98;3.72;;;;;;;24.65;50.42;98443.00;5153687;27;20034;-82
2023/07/02 11:47:27;;;;;;;7.47;3.63;;;;;;;24.42;49.72;98434.94;5151681;27;20061;-82
2023/07/02 11:50:11;;;;;;;7.50;3.10;;;;;;;24.87;49.52;98415.44;5152689;27;20050;-81
2023/07/02 11:52:55;;;;;;;7.53;2.53;;;;;;;24.35;47.96;98435.34;5151874;27;20190;-82
2023/07/02 11:55:39;;;;;;;7.32;3.50;;;;;;;23.71;49.64;98430.69;5153214;27;20194;-82
2023/07/02 11:58:23;;;;;;;9.65;3.38;;;;;;;24.06;49.81;98433.00;5152274;27;20046;-82
2023/07/02 12:01:07;;;;;;;11.95;3.20;;;;;;;24.26;49.72;98437.16;5156832;27;20145;-82
2023/07/02 12:03:51;;;;;;;12.10;3.70;;;;;;;23.76;51.25;98421.75;5151564;27;20449;-82
2023/07/02 12:06:35;;;;;;;9.90;4.05;;;;;;;23.74;52.05;98440.03;5151609;27;20122;-81
2023/07/02 12:09:19;;;;;;;7.85;3.67;;;;;;;22.81;52.83;98428.94;5146607;27;20747;-79
2023/07/02 12:12:04;;;;;;;11.20;3.30;;;;;;;23.39;52.28;98438.47;5151168;27;20084;-80
2023/07/02 12:14:47;;;;;;;10.73;3.30;;;;;;;23.85;51.96;98435.25;5151523;27;20041;-81
2023/07/02 12:17:32;;;;;;;10.90;3.28;;;;;;;24.36;51.31;98426.19;5149008;27;20073;-80
2023/07/02 12:20:15;;;;;;;10.00;3.50;;;;;;;24.57;51.91;98425.78;5133286;27;20070;-80
2023/07/02 12:22:59;;;;;;;10.93;3.70;;;;;;;24.59;51.41;98420.91;5134940;27;20049;-79
2023/07/02 12:25:43;;;;;;;14.30;3.85;;;;;;;25.20;50.67;98414.38;5149229;27;20197;-80
2023/07/02 12:28:27;;;;;;;10.43;3.92;;;;;;;25.60;50.19;98411.00;5147446;27;20099;-81
2023/07/02 12:31:12;;;;;;;9.90;3.88;;;;;;;25.77;50.56;98403.00;5151277;27;20055;-81
2023/07/02 12:33:57;;;;;;;11.82;3.53;;;;;;;24.76;49.93;98408.72;5152138;27;20525;-80
2023/07/02 12:36:41;;;;;;;9.55;3.88;;;;;;;24.99;50.24;98411.44;5137485;27;20158;-80
2023/07/02 12:39:26;;;;;;;12.02;3.80;;;;;;;23.65;51.82;98415.81;5149086;27;20539;-79
2023/07/02 12:42:11;;;;;;;13.75;3.22;;;;;;;23.77;51.19;98423.34;5147838;27;20054;-83
2023/07/02 12:44:54;;;;;;;11.38;3.38;;;;;;;24.27;50.49;98416.47;5150740;27;20463;-77
2023/07/02 12:47:40;;;;;;;9.80;3.20;;;;;;;24.54;50.22;98418.31;5151927;27;20395;-82